createdAt,value
2019-03-12T00:00:32.342Z,3.60
2019-03-12T00:03:00.907Z,3.60
2019-03-12T00:05:29.424Z,3.40
2019-03-12T00:07:57.849Z,3.40
2019-03-12T00:10:26.269Z,3.40
2019-03-12T00:12:54.718Z,3.30
2019-03-12T00:15:23.243Z,3.20
2019-03-12T00:17:51.658Z,3.30
2019-03-12T00:20:20.108Z,3.20
2019-03-12T00:22:48.590Z,3.10
2019-03-12T00:25:25.974Z,3.10
2019-03-12T00:27:54.406Z,3.00
2019-03-12T00:30:22.842Z,3.00
2019-03-12T00:32:51.290Z,2.90
2019-03-12T00:35:19.788Z,2.90
2019-03-12T00:37:48.225Z,2.80
2019-03-12T00:40:17.946Z,2.70
2019-03-12T00:42:46.413Z,2.60
2019-03-12T00:45:14.904Z,2.50
2019-03-12T00:47:43.380Z,2.30
2019-03-12T00:50:13.313Z,2.20
2019-03-12T00:52:41.733Z,2.20
2019-03-12T00:55:11.229Z,2.20
2019-03-12T00:57:39.665Z,2.20
2019-03-12T01:00:13.601Z,2.30
2019-03-12T01:02:42.142Z,2.50
2019-03-12T01:05:10.840Z,2.60
2019-03-12T01:07:39.286Z,2.70
2019-03-12T01:10:10.713Z,2.80
2019-03-12T01:12:39.250Z,2.90
2019-03-12T01:15:10.535Z,2.90
2019-03-12T01:17:39.074Z,2.80
2019-03-12T01:20:12.898Z,2.60
2019-03-12T01:22:41.459Z,2.60
2019-03-12T01:25:12.930Z,2.50
2019-03-12T01:27:41.323Z,2.40
2019-03-12T01:30:18.841Z,2.40
2019-03-12T01:32:47.260Z,2.40
2019-03-12T01:35:15.857Z,2.30
2019-03-12T01:37:44.327Z,2.30
2019-03-12T01:40:14.212Z,2.30
2019-03-12T01:43:01.994Z,2.30
2019-03-12T01:45:30.468Z,2.30
2019-03-12T01:47:58.886Z,2.40
2019-03-12T01:50:27.395Z,2.40
2019-03-12T01:52:55.914Z,2.50
2019-03-12T01:55:24.434Z,2.40
2019-03-12T01:57:52.868Z,2.40
2019-03-12T02:00:21.479Z,2.40
2019-03-12T02:02:50.037Z,2.50
2019-03-12T02:05:18.715Z,2.60
2019-03-12T02:07:47.208Z,2.70
2019-03-12T02:10:28.004Z,2.70
2019-03-12T02:12:56.462Z,2.70
2019-03-12T02:15:24.921Z,2.80
2019-03-12T02:17:53.347Z,2.80
2019-03-12T02:20:21.804Z,2.80
2019-03-12T02:22:50.304Z,2.80
2019-03-12T02:25:21.907Z,2.70
2019-03-12T02:27:50.353Z,2.70
2019-03-12T02:30:21.075Z,2.70
2019-03-12T02:32:49.691Z,2.60
2019-03-12T02:35:18.255Z,2.60
2019-03-12T02:37:46.695Z,2.60
2019-03-12T02:40:16.093Z,2.60
2019-03-12T02:42:44.539Z,2.60
2019-03-12T02:45:36.938Z,2.60
2019-03-12T02:48:05.429Z,2.60
2019-03-12T02:50:34.078Z,2.80
2019-03-12T02:53:02.699Z,2.90
2019-03-12T02:55:31.266Z,2.90
2019-03-12T02:57:59.830Z,2.90
2019-03-12T03:00:28.233Z,2.90
2019-03-12T03:03:02.478Z,2.80
2019-03-12T03:05:32.589Z,2.80
2019-03-12T03:08:08.475Z,2.80
2019-03-12T03:10:36.911Z,2.80
2019-03-12T03:13:05.544Z,2.70
2019-03-12T03:15:47.573Z,2.70
2019-03-12T03:18:16.031Z,2.60
2019-03-12T03:20:44.448Z,2.80
2019-03-12T03:23:12.865Z,2.80
2019-03-12T03:26:00.642Z,2.80
2019-03-12T03:28:49.010Z,2.80
2019-03-12T03:31:17.558Z,2.80
2019-03-12T03:33:46.061Z,2.70
2019-03-12T03:36:14.555Z,2.70
2019-03-12T03:38:42.983Z,2.60
2019-03-12T03:41:11.489Z,2.70
2019-03-12T03:43:39.992Z,2.70
2019-03-12T03:46:08.468Z,2.70
2019-03-12T03:48:36.931Z,2.70
2019-03-12T03:51:05.370Z,2.50
2019-03-12T03:53:33.802Z,2.50
2019-03-12T03:56:02.233Z,2.50
2019-03-12T03:58:30.669Z,2.40
2019-03-12T04:00:59.108Z,2.50
2019-03-12T04:03:27.563Z,2.40
2019-03-12T04:05:56.065Z,2.50
2019-03-12T04:08:24.479Z,2.50
2019-03-12T04:10:53.094Z,2.50
2019-03-12T04:13:21.526Z,2.40
2019-03-12T04:15:49.976Z,2.50
2019-03-12T04:18:18.394Z,2.50
2019-03-12T04:20:46.840Z,2.50
2019-03-12T04:23:16.133Z,2.50
2019-03-12T04:25:44.852Z,2.60
2019-03-12T04:28:13.266Z,2.50
2019-03-12T04:30:41.734Z,2.60
2019-03-12T04:33:21.980Z,2.60
2019-03-12T04:35:57.856Z,2.50
2019-03-12T04:38:26.287Z,2.50
2019-03-12T04:40:54.890Z,2.50
2019-03-12T04:43:23.315Z,2.50
2019-03-12T04:45:54.383Z,2.40
2019-03-12T04:48:22.842Z,2.50
2019-03-12T04:50:59.482Z,2.60
2019-03-12T04:53:27.924Z,2.60
2019-03-12T04:55:56.408Z,2.50
2019-03-12T04:58:25.029Z,2.50
2019-03-12T05:00:53.624Z,2.50
2019-03-12T05:03:22.064Z,2.40
2019-03-12T05:05:50.499Z,2.50
2019-03-12T05:08:19.017Z,2.40
2019-03-12T05:10:47.502Z,2.40
2019-03-12T05:13:15.966Z,2.50
2019-03-12T05:15:44.494Z,2.40
2019-03-12T05:18:12.918Z,2.30
2019-03-12T05:20:41.364Z,2.30
2019-03-12T05:23:09.782Z,2.30
2019-03-12T05:25:38.238Z,2.30
2019-03-12T05:28:06.756Z,2.30
2019-03-12T05:30:35.237Z,2.30
2019-03-12T05:33:03.629Z,2.30
2019-03-12T05:35:32.167Z,2.30
2019-03-12T05:38:00.590Z,2.30
2019-03-12T05:40:29.055Z,2.30
2019-03-12T05:42:57.449Z,2.30
2019-03-12T05:45:28.930Z,2.40
2019-03-12T05:47:57.386Z,2.50
2019-03-12T05:50:25.870Z,2.50
2019-03-12T05:53:31.676Z,2.60
2019-03-12T05:56:00.105Z,2.60
2019-03-12T05:58:28.511Z,2.70
2019-03-12T06:00:57.301Z,2.70
2019-03-12T06:03:25.811Z,2.70
2019-03-12T06:05:54.225Z,2.80
2019-03-12T06:08:22.691Z,2.80
2019-03-12T06:10:51.120Z,2.80
2019-03-12T06:13:19.585Z,2.80
2019-03-12T06:15:48.014Z,2.90
2019-03-12T06:18:16.530Z,2.90
2019-03-12T06:20:44.980Z,3.00
2019-03-12T06:23:15.210Z,3.00
2019-03-12T06:25:43.639Z,3.10
2019-03-12T06:28:12.053Z,3.10
2019-03-12T06:30:51.108Z,3.10
2019-03-12T06:33:37.540Z,3.20
2019-03-12T06:36:25.970Z,3.20
2019-03-12T06:39:12.551Z,3.20
2019-03-12T06:41:48.123Z,3.30
2019-03-12T06:44:33.562Z,3.30
2019-03-12T06:47:14.901Z,3.30
2019-03-12T06:52:41.469Z,3.40
2019-03-12T06:55:19.424Z,3.20
2019-03-12T06:58:14.605Z,3.20
2019-03-12T07:00:47.712Z,3.30
2019-03-12T07:03:17.757Z,3.30
2019-03-12T07:06:03.730Z,3.30
2019-03-12T07:08:33.775Z,3.30
2019-03-12T07:11:19.240Z,3.40
2019-03-12T07:13:49.338Z,3.30
2019-03-12T07:16:22.330Z,3.50
2019-03-12T07:19:07.580Z,3.70
2019-03-12T07:21:37.699Z,3.80
2019-03-12T07:24:07.829Z,3.70
2019-03-12T07:26:40.591Z,3.80
2019-03-12T07:29:10.660Z,3.80
2019-03-12T07:31:52.676Z,4.10
2019-03-12T07:34:39.004Z,4.60
2019-03-12T07:37:11.826Z,5.00
2019-03-12T07:39:41.883Z,5.60
2019-03-12T07:42:14.914Z,5.60
2019-03-12T07:44:49.964Z,5.70
2019-03-12T07:47:35.819Z,5.90
2019-03-12T07:50:15.383Z,5.90
2019-03-12T07:52:45.482Z,6.00
2019-03-12T07:55:24.759Z,6.10
2019-03-12T07:57:54.863Z,6.50
2019-03-12T08:00:24.960Z,6.80
2019-03-12T08:02:55.062Z,7.10
2019-03-12T08:05:28.062Z,6.90
2019-03-12T08:10:51.981Z,6.70
2019-03-12T08:13:37.422Z,6.90
2019-03-12T08:16:09.935Z,7.30
2019-03-12T08:18:50.283Z,7.40
2019-03-12T08:21:23.331Z,7.10
2019-03-12T08:23:52.670Z,7.00
2019-03-12T08:26:37.808Z,7.30
2019-03-12T08:29:19.711Z,7.20
2019-03-12T08:34:40.928Z,7.40
2019-03-12T08:37:26.098Z,7.10
2019-03-12T08:39:56.212Z,7.00
2019-03-12T08:42:57.551Z,6.80
2019-03-12T08:45:45.365Z,6.60
2019-03-12T08:48:33.900Z,6.80
2019-03-12T08:51:10.233Z,6.80
2019-03-12T08:53:43.184Z,6.60
2019-03-12T08:56:12.519Z,6.50
2019-03-12T08:58:58.903Z,6.20
2019-03-12T09:01:47.313Z,6.30
2019-03-12T09:04:31.599Z,6.50
2019-03-12T09:10:24.166Z,6.60
2019-03-12T09:12:54.230Z,6.80
2019-03-12T09:15:40.667Z,6.70
2019-03-12T09:18:10.795Z,7.00
2019-03-12T09:20:40.889Z,7.00
2019-03-12T09:23:10.954Z,6.90
2019-03-12T09:25:43.905Z,7.10
2019-03-12T09:28:15.887Z,7.10
2019-03-12T09:30:46.059Z,7.30
2019-03-12T09:33:16.179Z,7.40
2019-03-12T09:35:57.195Z,7.50
2019-03-12T09:38:27.258Z,7.50
2019-03-12T09:41:00.019Z,7.60
2019-03-12T09:44:05.975Z,7.70
2019-03-12T09:46:36.070Z,7.90
2019-03-12T09:49:12.001Z,8.00
2019-03-12T09:52:04.262Z,8.00
2019-03-12T09:54:46.378Z,8.10
2019-03-12T09:57:34.644Z,8.10
2019-03-12T10:00:16.352Z,8.10
2019-03-12T10:02:58.546Z,8.20
2019-03-12T10:05:31.327Z,8.40
2019-03-12T10:08:23.446Z,8.70
2019-03-12T10:10:59.374Z,8.90
2019-03-12T10:13:32.249Z,8.60
2019-03-12T10:16:02.337Z,8.20
2019-03-12T10:18:35.215Z,8.40
2019-03-12T10:23:56.255Z,8.60
2019-03-12T10:26:35.574Z,8.80
2019-03-12T10:29:05.881Z,9.00
2019-03-12T10:31:35.933Z,9.40
2019-03-12T10:34:29.507Z,9.20
2019-03-12T10:36:54.250Z,9.50
2019-03-12T10:39:59.298Z,9.60
2019-03-12T10:42:35.400Z,9.90
2019-03-12T10:45:23.768Z,10.10
2019-03-12T10:47:56.624Z,9.50
2019-03-12T10:50:25.167Z,9.30
2019-03-12T10:52:53.681Z,9.60
2019-03-12T10:55:22.359Z,9.70
2019-03-12T10:57:50.832Z,9.60
2019-03-12T11:00:19.986Z,9.20
2019-03-12T11:02:48.509Z,9.40
2019-03-12T11:05:18.241Z,9.60
2019-03-12T11:07:46.817Z,9.10
2019-03-12T11:10:21.442Z,9.20
2019-03-12T11:12:49.864Z,9.40
2019-03-12T11:15:18.573Z,9.30
2019-03-12T11:17:49.910Z,9.30
2019-03-12T11:20:25.613Z,9.60
2019-03-12T11:22:54.154Z,9.70
2019-03-12T11:25:41.967Z,9.80
2019-03-12T11:28:10.812Z,9.60
2019-03-12T11:30:39.314Z,9.60
2019-03-12T11:33:07.776Z,9.90
2019-03-12T11:35:39.090Z,10.00
2019-03-12T11:38:06.429Z,9.70
2019-03-12T11:40:40.941Z,9.80
2019-03-12T11:43:09.587Z,9.70
2019-03-12T11:45:39.169Z,10.10
2019-03-12T11:48:10.288Z,10.10
2019-03-12T11:50:39.090Z,9.70
2019-03-12T11:53:07.507Z,9.90
2019-03-12T11:55:36.133Z,9.60
2019-03-12T11:58:04.691Z,9.80
2019-03-12T12:00:37.669Z,9.80
2019-03-12T12:03:06.286Z,9.90
2019-03-12T12:05:34.739Z,9.80
2019-03-12T12:08:03.253Z,10.00
2019-03-12T12:10:31.686Z,10.30
2019-03-12T12:13:00.194Z,10.00
2019-03-12T12:15:47.149Z,9.80
2019-03-12T12:18:15.949Z,9.60
2019-03-12T12:20:44.422Z,9.60
2019-03-12T12:23:13.044Z,9.80
2019-03-12T12:25:41.523Z,10.00
2019-03-12T12:28:10.016Z,9.80
2019-03-12T12:30:38.623Z,9.80
2019-03-12T12:33:07.277Z,9.70
2019-03-12T12:35:35.771Z,9.70
2019-03-12T12:38:04.359Z,9.70
2019-03-12T12:40:32.796Z,9.60
2019-03-12T12:43:01.214Z,9.50
2019-03-12T12:45:35.383Z,9.40
2019-03-12T12:48:07.420Z,9.60
2019-03-12T12:50:35.858Z,9.60
2019-03-12T12:53:04.387Z,9.60
2019-03-12T12:55:32.791Z,9.50
2019-03-12T12:58:01.446Z,9.50
2019-03-12T13:00:30.343Z,9.40
2019-03-12T13:02:59.004Z,9.40
2019-03-12T13:05:27.468Z,9.40
2019-03-12T13:07:55.997Z,9.40
2019-03-12T13:10:28.685Z,9.40
2019-03-12T13:12:57.259Z,9.30
2019-03-12T13:15:26.511Z,9.40
2019-03-12T13:17:55.012Z,9.50
2019-03-12T13:20:23.543Z,9.70
2019-03-12T13:22:52.075Z,9.90
2019-03-12T13:25:21.363Z,10.30
2019-03-12T13:27:58.754Z,10.20
2019-03-12T13:30:23.602Z,10.30
2019-03-12T13:32:52.195Z,10.50
2019-03-12T13:35:20.767Z,10.50
2019-03-12T13:37:49.471Z,10.30
2019-03-12T13:40:41.539Z,10.30
2019-03-12T13:43:10.067Z,10.30
2019-03-12T13:45:38.515Z,10.20
2019-03-12T13:48:07.069Z,9.90
2019-03-12T13:50:35.687Z,9.90
2019-03-12T13:53:04.405Z,9.80
2019-03-12T13:55:32.934Z,9.70
2019-03-12T13:58:01.792Z,10.10
2019-03-12T14:00:33.081Z,10.10
2019-03-12T14:03:00.468Z,10.00
2019-03-12T14:05:29.075Z,10.10
2019-03-12T14:07:57.604Z,10.00
2019-03-12T14:10:27.980Z,10.00
2019-03-12T14:12:57.580Z,10.20
2019-03-12T14:15:33.690Z,10.10
2019-03-12T14:18:02.211Z,10.30
2019-03-12T14:20:57.209Z,10.20
2019-03-12T14:23:46.768Z,10.10
2019-03-12T14:26:15.322Z,10.20
2019-03-12T14:28:43.900Z,10.20
2019-03-12T14:31:12.630Z,10.40
2019-03-12T14:34:00.503Z,10.50
2019-03-12T14:36:29.998Z,10.70
2019-03-12T14:38:58.667Z,10.60
2019-03-12T14:41:27.188Z,10.30
2019-03-12T14:43:55.654Z,10.30
2019-03-12T14:46:24.295Z,10.20
2019-03-12T14:48:54.549Z,10.00
2019-03-12T14:51:26.070Z,10.00
2019-03-12T14:54:09.673Z,10.10
2019-03-12T14:56:38.411Z,10.10
2019-03-12T14:59:07.050Z,10.10
2019-03-12T15:01:35.572Z,10.10
2019-03-12T15:04:04.378Z,10.40
2019-03-12T15:06:41.789Z,10.50
2019-03-12T15:09:12.791Z,10.50
2019-03-12T15:11:41.297Z,10.50
2019-03-12T15:14:09.720Z,10.40
2019-03-12T15:16:38.139Z,10.20
2019-03-12T15:19:06.662Z,10.10
2019-03-12T15:21:35.249Z,10.00
2019-03-12T15:24:03.847Z,9.90
2019-03-12T15:26:41.314Z,9.90
2019-03-12T15:29:10.362Z,9.80
2019-03-12T15:31:38.789Z,9.80
2019-03-12T15:34:07.264Z,9.80
2019-03-12T15:36:35.713Z,9.80
2019-03-12T15:39:05.470Z,9.80
2019-03-12T15:41:33.940Z,9.90
2019-03-12T15:44:02.744Z,9.80
2019-03-12T15:46:31.208Z,9.80
2019-03-12T15:48:59.784Z,9.80
2019-03-12T15:51:28.308Z,9.70
2019-03-12T15:53:56.876Z,9.70
2019-03-12T15:56:25.340Z,9.70
2019-03-12T15:58:53.892Z,9.70
2019-03-12T16:01:22.290Z,9.70
2019-03-12T16:03:50.803Z,9.70
2019-03-12T16:06:19.492Z,9.70
2019-03-12T16:08:47.961Z,9.60
2019-03-12T16:11:16.429Z,9.60
2019-03-12T16:13:45.049Z,9.60
2019-03-12T16:16:13.584Z,9.50
2019-03-12T16:18:42.082Z,9.50
2019-03-12T16:21:10.540Z,9.40
2019-03-12T16:23:38.976Z,9.40
2019-03-12T16:26:08.412Z,9.40
2019-03-12T16:28:36.835Z,9.40
2019-03-12T16:31:05.418Z,9.30
2019-03-12T16:33:33.858Z,9.30
2019-03-12T16:36:02.515Z,9.40
2019-03-12T16:38:30.975Z,9.40
2019-03-12T16:40:59.456Z,9.30
2019-03-12T16:43:27.863Z,9.30
2019-03-12T16:45:56.327Z,9.30
2019-03-12T16:48:24.871Z,9.30
2019-03-12T16:50:53.366Z,9.30
2019-03-12T16:53:21.785Z,9.30
2019-03-12T16:55:50.213Z,9.30
2019-03-12T16:58:18.674Z,9.30
2019-03-12T17:00:47.175Z,9.30
2019-03-12T17:03:15.643Z,9.30
2019-03-12T17:05:44.076Z,9.30
2019-03-12T17:08:16.603Z,9.40
2019-03-12T17:10:55.977Z,9.50
2019-03-12T17:13:15.357Z,9.70
2019-03-12T17:15:51.101Z,9.80
2019-03-12T17:18:22.250Z,9.90
2019-03-12T17:20:51.066Z,10.00
2019-03-12T17:23:21.056Z,9.90
2019-03-12T17:25:50.773Z,9.90
2019-03-12T17:28:20.902Z,9.90
2019-03-12T17:30:51.039Z,9.80
2019-03-12T17:33:22.586Z,9.80
2019-03-12T17:35:54.933Z,9.90
2019-03-12T17:38:45.476Z,9.80
2019-03-12T17:41:01.196Z,9.70
2019-03-12T17:43:34.067Z,9.80
2019-03-12T17:46:04.123Z,9.70
2019-03-12T17:48:34.707Z,9.70
2019-03-12T17:51:03.265Z,9.70
2019-03-12T17:53:36.249Z,9.70
2019-03-12T17:56:04.931Z,9.70
2019-03-12T17:58:43.918Z,9.70
2019-03-12T18:01:03.707Z,9.70
2019-03-12T18:03:35.546Z,9.70
2019-03-12T18:06:05.830Z,9.70
2019-03-12T18:08:36.423Z,9.80
2019-03-12T18:11:04.995Z,9.80
2019-03-12T18:13:33.553Z,9.80
2019-03-12T18:16:02.035Z,9.80
2019-03-12T18:18:30.470Z,9.80
2019-03-12T18:20:58.947Z,9.90
2019-03-12T18:23:27.442Z,9.80
2019-03-12T18:25:56.239Z,9.80
2019-03-12T18:28:24.809Z,9.80
2019-03-12T18:30:54.865Z,9.90
2019-03-12T18:33:26.563Z,10.00
2019-03-12T18:35:56.739Z,10.00
2019-03-12T18:38:26.961Z,10.00
2019-03-12T18:40:57.031Z,10.00
2019-03-12T18:43:29.968Z,10.00
2019-03-12T18:45:58.514Z,10.10
2019-03-12T18:48:29.663Z,10.10
2019-03-12T18:50:58.101Z,10.10
2019-03-12T18:53:32.753Z,10.10
2019-03-12T18:56:01.435Z,10.20
2019-03-12T18:58:31.501Z,10.20
2019-03-12T19:01:07.922Z,10.20
2019-03-12T19:03:40.298Z,10.30
2019-03-12T19:06:11.558Z,10.20
2019-03-12T19:08:47.482Z,10.30
2019-03-12T19:11:17.213Z,10.30
2019-03-12T19:13:49.226Z,10.30
2019-03-12T19:16:17.427Z,10.40
2019-03-12T19:18:45.833Z,10.40
2019-03-12T19:21:14.410Z,10.40
2019-03-12T19:23:44.183Z,10.30
2019-03-12T19:26:14.227Z,10.40
2019-03-12T19:28:45.896Z,10.40
2019-03-12T19:31:25.028Z,10.40
2019-03-12T19:33:55.130Z,10.40
2019-03-12T19:36:25.290Z,10.50
2019-03-12T19:38:55.297Z,10.50
2019-03-12T19:41:23.913Z,10.50
2019-03-12T19:43:54.934Z,10.50
2019-03-12T19:46:23.481Z,10.50
2019-03-12T19:48:53.758Z,10.60
2019-03-12T19:51:22.310Z,10.60
2019-03-12T19:53:50.731Z,10.60
2019-03-12T19:56:27.801Z,10.60
2019-03-12T19:58:56.493Z,10.50
2019-03-12T20:01:25.313Z,10.40
2019-03-12T20:04:03.501Z,10.50
2019-03-12T20:06:36.207Z,10.50
2019-03-12T20:09:08.766Z,10.50
2019-03-12T20:11:48.314Z,10.50
2019-03-12T20:14:24.118Z,10.60
2019-03-12T20:17:09.308Z,10.50
2019-03-12T20:19:54.102Z,10.50
2019-03-12T20:22:42.714Z,10.50
2019-03-12T20:25:50.466Z,10.50
2019-03-12T20:28:39.810Z,10.60
2019-03-12T20:31:26.122Z,10.60
2019-03-12T20:34:23.357Z,10.60
2019-03-12T20:37:32.111Z,10.50
2019-03-12T20:40:38.019Z,10.60
2019-03-12T20:43:19.531Z,10.60
2019-03-12T20:46:26.935Z,10.60
2019-03-12T20:49:10.826Z,10.70
2019-03-12T20:52:03.542Z,10.60
2019-03-12T20:55:07.025Z,10.60
2019-03-12T20:57:57.866Z,10.70
2019-03-12T21:00:48.332Z,10.70
2019-03-12T21:03:33.333Z,10.70
2019-03-12T21:06:39.677Z,10.60
2019-03-12T21:09:13.940Z,10.60
2019-03-12T21:12:10.893Z,10.70
2019-03-12T21:14:58.843Z,10.60
2019-03-12T21:17:35.953Z,10.70
2019-03-12T21:20:40.737Z,10.70
2019-03-12T21:23:12.298Z,10.70
2019-03-12T21:26:04.842Z,10.60
2019-03-12T21:28:56.074Z,10.60
2019-03-12T21:31:24.601Z,10.60
2019-03-12T21:33:53.028Z,10.50
2019-03-12T21:36:21.551Z,10.50
2019-03-12T21:38:50.024Z,10.40
2019-03-12T21:41:18.455Z,10.40
2019-03-12T21:43:46.994Z,10.40
2019-03-12T21:46:15.438Z,10.40
2019-03-12T21:48:45.146Z,10.30
2019-03-12T21:51:13.644Z,10.30
2019-03-12T21:53:42.131Z,10.20
2019-03-12T21:56:10.662Z,10.20
2019-03-12T21:58:39.154Z,10.10
2019-03-12T22:01:07.631Z,10.10
2019-03-12T22:03:36.091Z,10.00
2019-03-12T22:06:04.522Z,9.90
2019-03-12T22:08:32.965Z,9.90
2019-03-12T22:11:01.417Z,9.90
2019-03-12T22:13:29.845Z,9.90
2019-03-12T22:15:58.316Z,9.80
2019-03-12T22:18:26.775Z,9.70
2019-03-12T22:20:55.305Z,9.70
2019-03-12T22:23:25.389Z,9.70
2019-03-12T22:25:55.943Z,9.70
2019-03-12T22:28:23.995Z,9.70
2019-03-12T22:30:52.445Z,9.70
2019-03-12T22:33:20.903Z,9.70
2019-03-12T22:35:49.322Z,9.70
2019-03-12T22:38:17.769Z,9.60
2019-03-12T22:40:46.199Z,9.70
2019-03-12T22:43:14.653Z,9.60
2019-03-12T22:45:43.088Z,9.60
2019-03-12T22:48:11.491Z,9.60
2019-03-12T22:50:39.953Z,9.60
2019-03-12T22:53:08.458Z,9.60
2019-03-12T22:55:36.921Z,9.50
2019-03-12T22:58:05.369Z,9.60
2019-03-12T23:00:38.078Z,9.60
2019-03-12T23:03:06.610Z,9.60
2019-03-12T23:05:35.068Z,9.70
2019-03-12T23:08:03.516Z,9.70
2019-03-12T23:10:32.215Z,9.70
2019-03-12T23:13:00.737Z,9.80
2019-03-12T23:15:29.414Z,9.80
2019-03-12T23:17:57.882Z,9.90
2019-03-12T23:20:26.525Z,9.90
2019-03-12T23:22:55.339Z,10.00
2019-03-12T23:25:23.856Z,10.10
2019-03-12T23:27:52.301Z,10.20
2019-03-12T23:30:21.953Z,10.20
2019-03-12T23:32:50.421Z,10.10
2019-03-12T23:35:18.845Z,9.90
2019-03-12T23:37:47.368Z,9.70
2019-03-12T23:40:16.798Z,9.40
2019-03-12T23:42:51.269Z,9.30
2019-03-12T23:45:19.687Z,9.10
2019-03-12T23:47:50.373Z,8.90
2019-03-12T23:50:19.059Z,8.70
2019-03-12T23:52:47.562Z,8.60
2019-03-12T23:55:36.835Z,8.40
2019-03-12T23:58:05.325Z,8.30
